Terminal Aerodrome Forecast
Issued by NWS

Home | Current Version | Previous Version | Text Only | Print | Product List | Glossary On
Versions: 1 2 3 4 5 6 7 8 9 10 11 12 13 14 15 16
000
FTUS44 KTSA 232336
TAFMLC
TAF
KMLC 232336Z 2400/2424 01007KT P6SM BKN100
     FM241200 02006KT P6SM OVC050
     FM241500 05006KT P6SM SCT050=

USA.gov is the U.S. government's official web portal to all federal, state and local government web resources and services.